sensor_id;sensor_type;location;lat;lon;timestamp;P1;durP1;ratioP1;P2;durP2;ratioP2
2728;SDS011;1372;47.956;7.830;2023-10-09T00:01:51;7.43;;;2.67;;
2728;SDS011;1372;47.956;7.830;2023-10-09T00:04:21;6.53;;;3.07;;
2728;SDS011;1372;47.956;7.830;2023-10-09T00:06:50;9.80;;;3.60;;
2728;SDS011;1372;47.956;7.830;2023-10-09T00:09:23;9.73;;;2.60;;
2728;SDS011;1372;47.956;7.830;2023-10-09T00:12:00;9.73;;;2.43;;
2728;SDS011;1372;47.956;7.830;2023-10-09T00:14:39;6.80;;;2.60;;
2728;SDS011;1372;47.956;7.830;2023-10-09T00:17:16;7.40;;;3.07;;
2728;SDS011;1372;47.956;7.830;2023-10-09T00:19:48;6.13;;;2.70;;
2728;SDS011;1372;47.956;7.830;2023-10-09T00:22:21;7.80;;;2.73;;
2728;SDS011;1372;47.956;7.830;2023-10-09T00:24:57;7.63;;;2.77;;
2728;SDS011;1372;47.956;7.830;2023-10-09T00:27:41;8.00;;;3.00;;
2728;SDS011;1372;47.956;7.830;2023-10-09T00:30:13;6.57;;;3.30;;
2728;SDS011;1372;47.956;7.830;2023-10-09T00:32:45;5.77;;;2.73;;
2728;SDS011;1372;47.956;7.830;2023-10-09T00:35:23;5.67;;;2.77;;
2728;SDS011;1372;47.956;7.830;2023-10-09T00:38:08;7.07;;;2.50;;
2728;SDS011;1372;47.956;7.830;2023-10-09T00:40:49;6.03;;;2.33;;
2728;SDS011;1372;47.956;7.830;2023-10-09T00:43:40;5.17;;;2.70;;
2728;SDS011;1372;47.956;7.830;2023-10-09T00:46:10;7.37;;;2.47;;
2728;SDS011;1372;47.956;7.830;2023-10-09T00:48:52;5.83;;;2.90;;
2728;SDS011;1372;47.956;7.830;2023-10-09T00:51:24;10.13;;;2.43;;
2728;SDS011;1372;47.956;7.830;2023-10-09T00:53:56;9.70;;;2.93;;
2728;SDS011;1372;47.956;7.830;2023-10-09T00:56:34;4.60;;;2.37;;
2728;SDS011;1372;47.956;7.830;2023-10-09T00:59:10;10.00;;;4.00;;
2728;SDS011;1372;47.956;7.830;2023-10-09T01:01:48;11.30;;;2.93;;
2728;SDS011;1372;47.956;7.830;2023-10-09T01:04:24;4.90;;;3.10;;
2728;SDS011;1372;47.956;7.830;2023-10-09T01:06:57;7.57;;;4.03;;
2728;SDS011;1372;47.956;7.830;2023-10-09T01:09:36;12.00;;;3.70;;
2728;SDS011;1372;47.956;7.830;2023-10-09T01:12:05;7.43;;;3.00;;
2728;SDS011;1372;47.956;7.830;2023-10-09T01:14:45;4.93;;;2.00;;
2728;SDS011;1372;47.956;7.830;2023-10-09T01:17:22;7.60;;;3.10;;
2728;SDS011;1372;47.956;7.830;2023-10-09T01:20:03;4.40;;;2.30;;
2728;SDS011;1372;47.956;7.830;2023-10-09T01:22:43;8.50;;;2.60;;
2728;SDS011;1372;47.956;7.830;2023-10-09T01:25:15;6.03;;;2.50;;
2728;SDS011;1372;47.956;7.830;2023-10-09T01:27:44;6.13;;;2.47;;
2728;SDS011;1372;47.956;7.830;2023-10-09T01:30:12;6.17;;;2.57;;
2728;SDS011;1372;47.956;7.830;2023-10-09T01:32:41;4.03;;;2.37;;
2728;SDS011;1372;47.956;7.830;2023-10-09T01:35:12;4.67;;;2.80;;
2728;SDS011;1372;47.956;7.830;2023-10-09T01:37:47;5.90;;;2.83;;
2728;SDS011;1372;47.956;7.830;2023-10-09T01:40:19;7.70;;;3.00;;
2728;SDS011;1372;47.956;7.830;2023-10-09T01:43:02;7.30;;;2.73;;
2728;SDS011;1372;47.956;7.830;2023-10-09T01:45:31;5.63;;;2.50;;
2728;SDS011;1372;47.956;7.830;2023-10-09T01:48:09;8.43;;;3.07;;
2728;SDS011;1372;47.956;7.830;2023-10-09T01:50:39;9.53;;;2.87;;
2728;SDS011;1372;47.956;7.830;2023-10-09T01:53:11;8.67;;;2.57;;
2728;SDS011;1372;47.956;7.830;2023-10-09T01:55:46;7.63;;;2.50;;
2728;SDS011;1372;47.956;7.830;2023-10-09T01:58:16;5.57;;;2.70;;
2728;SDS011;1372;47.956;7.830;2023-10-09T02:00:51;9.27;;;3.37;;
2728;SDS011;1372;47.956;7.830;2023-10-09T02:03:23;5.50;;;3.07;;
2728;SDS011;1372;47.956;7.830;2023-10-09T02:05:55;7.57;;;3.17;;
2728;SDS011;1372;47.956;7.830;2023-10-09T02:08:27;8.30;;;3.30;;
2728;SDS011;1372;47.956;7.830;2023-10-09T02:10:58;6.60;;;2.80;;
2728;SDS011;1372;47.956;7.830;2023-10-09T02:13:29;4.80;;;2.50;;
2728;SDS011;1372;47.956;7.830;2023-10-09T02:16:01;5.93;;;2.67;;
2728;SDS011;1372;47.956;7.830;2023-10-09T02:18:41;9.00;;;2.47;;
2728;SDS011;1372;47.956;7.830;2023-10-09T02:21:20;7.53;;;3.33;;
2728;SDS011;1372;47.956;7.830;2023-10-09T02:24:06;5.93;;;2.47;;
2728;SDS011;1372;47.956;7.830;2023-10-09T02:26:55;6.73;;;2.70;;
2728;SDS011;1372;47.956;7.830;2023-10-09T02:29:38;11.17;;;3.20;;
2728;SDS011;1372;47.956;7.830;2023-10-09T02:32:09;7.33;;;2.63;;
2728;SDS011;1372;47.956;7.830;2023-10-09T02:34:51;5.03;;;2.03;;
2728;SDS011;1372;47.956;7.830;2023-10-09T02:37:21;6.37;;;2.80;;
2728;SDS011;1372;47.956;7.830;2023-10-09T02:39:52;6.00;;;3.17;;
2728;SDS011;1372;47.956;7.830;2023-10-09T02:42:22;7.87;;;2.93;;
2728;SDS011;1372;47.956;7.830;2023-10-09T02:44:52;8.50;;;2.77;;
2728;SDS011;1372;47.956;7.830;2023-10-09T02:47:25;4.80;;;2.40;;
2728;SDS011;1372;47.956;7.830;2023-10-09T02:50:05;12.60;;;2.87;;
2728;SDS011;1372;47.956;7.830;2023-10-09T02:52:46;3.93;;;1.97;;
2728;SDS011;1372;47.956;7.830;2023-10-09T02:55:19;4.20;;;2.30;;
2728;SDS011;1372;47.956;7.830;2023-10-09T02:57:57;8.30;;;2.93;;
2728;SDS011;1372;47.956;7.830;2023-10-09T03:00:34;5.37;;;2.37;;
2728;SDS011;1372;47.956;7.830;2023-10-09T03:03:04;4.03;;;2.63;;
2728;SDS011;1372;47.956;7.830;2023-10-09T03:05:35;10.33;;;2.63;;
2728;SDS011;1372;47.956;7.830;2023-10-09T03:08:09;11.83;;;3.10;;
2728;SDS011;1372;47.956;7.830;2023-10-09T03:10:39;11.60;;;2.90;;
2728;SDS011;1372;47.956;7.830;2023-10-09T03:13:12;8.00;;;2.77;;
2728;SDS011;1372;47.956;7.830;2023-10-09T03:15:46;7.40;;;3.17;;
2728;SDS011;1372;47.956;7.830;2023-10-09T03:18:15;7.43;;;2.70;;
2728;SDS011;1372;47.956;7.830;2023-10-09T03:20:44;7.80;;;2.87;;
2728;SDS011;1372;47.956;7.830;2023-10-09T03:23:13;11.07;;;3.30;;
2728;SDS011;1372;47.956;7.830;2023-10-09T03:25:42;5.17;;;2.50;;
2728;SDS011;1372;47.956;7.830;2023-10-09T03:28:13;9.30;;;2.97;;
2728;SDS011;1372;47.956;7.830;2023-10-09T03:30:42;3.80;;;2.07;;
2728;SDS011;1372;47.956;7.830;2023-10-09T03:33:14;9.33;;;3.13;;
2728;SDS011;1372;47.956;7.830;2023-10-09T03:35:42;5.90;;;3.30;;
2728;SDS011;1372;47.956;7.830;2023-10-09T03:38:11;6.17;;;2.70;;
2728;SDS011;1372;47.956;7.830;2023-10-09T03:40:43;9.67;;;3.23;;
2728;SDS011;1372;47.956;7.830;2023-10-09T03:43:16;8.83;;;3.20;;
2728;SDS011;1372;47.956;7.830;2023-10-09T03:45:46;7.10;;;3.13;;
2728;SDS011;1372;47.956;7.830;2023-10-09T03:48:19;5.80;;;2.17;;
2728;SDS011;1372;47.956;7.830;2023-10-09T03:50:52;5.10;;;2.47;;
2728;SDS011;1372;47.956;7.830;2023-10-09T03:53:36;9.83;;;3.00;;
2728;SDS011;1372;47.956;7.830;2023-10-09T03:56:06;7.10;;;2.93;;
2728;SDS011;1372;47.956;7.830;2023-10-09T03:58:41;6.30;;;2.63;;
2728;SDS011;1372;47.956;7.830;2023-10-09T04:01:12;8.73;;;3.80;;
2728;SDS011;1372;47.956;7.830;2023-10-09T04:03:50;7.97;;;2.80;;
2728;SDS011;1372;47.956;7.830;2023-10-09T04:06:22;9.33;;;2.40;;
2728;SDS011;1372;47.956;7.830;2023-10-09T04:08:55;8.47;;;2.60;;
2728;SDS011;1372;47.956;7.830;2023-10-09T04:11:25;5.70;;;3.00;;
2728;SDS011;1372;47.956;7.830;2023-10-09T04:13:55;11.83;;;2.60;;
2728;SDS011;1372;47.956;7.830;2023-10-09T04:16:26;5.70;;;2.90;;
2728;SDS011;1372;47.956;7.830;2023-10-09T04:19:18;9.00;;;2.40;;
2728;SDS011;1372;47.956;7.830;2023-10-09T04:21:48;6.10;;;3.00;;
2728;SDS011;1372;47.956;7.830;2023-10-09T04:24:16;8.60;;;3.67;;
2728;SDS011;1372;47.956;7.830;2023-10-09T04:26:51;10.60;;;3.73;;
2728;SDS011;1372;47.956;7.830;2023-10-09T04:29:25;7.67;;;3.60;;
2728;SDS011;1372;47.956;7.830;2023-10-09T04:32:05;7.23;;;4.20;;
2728;SDS011;1372;47.956;7.830;2023-10-09T04:34:44;8.83;;;4.30;;
2728;SDS011;1372;47.956;7.830;2023-10-09T04:37:16;8.20;;;5.90;;
2728;SDS011;1372;47.956;7.830;2023-10-09T04:40:03;10.03;;;4.57;;
2728;SDS011;1372;47.956;7.830;2023-10-09T04:42:39;9.20;;;4.20;;
2728;SDS011;1372;47.956;7.830;2023-10-09T04:45:18;6.70;;;3.30;;
2728;SDS011;1372;47.956;7.830;2023-10-09T04:48:08;9.10;;;4.13;;
2728;SDS011;1372;47.956;7.830;2023-10-09T04:50:36;7.80;;;3.33;;
2728;SDS011;1372;47.956;7.830;2023-10-09T04:53:25;11.70;;;4.80;;
2728;SDS011;1372;47.956;7.830;2023-10-09T04:55:55;5.40;;;3.00;;
2728;SDS011;1372;47.956;7.830;2023-10-09T04:58:31;9.10;;;2.87;;
2728;SDS011;1372;47.956;7.830;2023-10-09T05:01:07;8.53;;;3.50;;
2728;SDS011;1372;47.956;7.830;2023-10-09T05:04:03;5.00;;;3.33;;
2728;SDS011;1372;47.956;7.830;2023-10-09T05:06:47;6.10;;;2.83;;
2728;SDS011;1372;47.956;7.830;2023-10-09T05:09:25;8.80;;;2.80;;
2728;SDS011;1372;47.956;7.830;2023-10-09T05:12:09;9.43;;;4.07;;
2728;SDS011;1372;47.956;7.830;2023-10-09T05:14:42;8.00;;;3.30;;
2728;SDS011;1372;47.956;7.830;2023-10-09T05:17:37;7.50;;;3.37;;
2728;SDS011;1372;47.956;7.830;2023-10-09T05:20:19;7.03;;;4.20;;
2728;SDS011;1372;47.956;7.830;2023-10-09T05:23:05;9.10;;;2.80;;
2728;SDS011;1372;47.956;7.830;2023-10-09T05:26:02;7.50;;;2.97;;
2728;SDS011;1372;47.956;7.830;2023-10-09T05:28:52;5.97;;;2.70;;
2728;SDS011;1372;47.956;7.830;2023-10-09T05:31:25;9.40;;;2.90;;
2728;SDS011;1372;47.956;7.830;2023-10-09T05:34:23;6.00;;;2.60;;
2728;SDS011;1372;47.956;7.830;2023-10-09T05:37:01;5.60;;;2.93;;
2728;SDS011;1372;47.956;7.830;2023-10-09T05:39:47;6.03;;;2.63;;
2728;SDS011;1372;47.956;7.830;2023-10-09T05:42:39;7.73;;;3.40;;
2728;SDS011;1372;47.956;7.830;2023-10-09T05:45:10;7.90;;;2.37;;
2728;SDS011;1372;47.956;7.830;2023-10-09T05:48:04;5.23;;;2.60;;
2728;SDS011;1372;47.956;7.830;2023-10-09T05:50:54;8.77;;;4.10;;
2728;SDS011;1372;47.956;7.830;2023-10-09T05:53:39;6.90;;;4.10;;
2728;SDS011;1372;47.956;7.830;2023-10-09T05:56:38;7.80;;;5.60;;
2728;SDS011;1372;47.956;7.830;2023-10-09T05:59:27;10.80;;;7.73;;
2728;SDS011;1372;47.956;7.830;2023-10-09T06:02:17;83.87;;;38.13;;
2728;SDS011;1372;47.956;7.830;2023-10-09T06:05:02;58.47;;;31.47;;
2728;SDS011;1372;47.956;7.830;2023-10-09T06:07:53;36.30;;;17.77;;
2728;SDS011;1372;47.956;7.830;2023-10-09T06:10:35;34.10;;;15.53;;
2728;SDS011;1372;47.956;7.830;2023-10-09T06:13:08;16.43;;;8.30;;
2728;SDS011;1372;47.956;7.830;2023-10-09T06:15:53;10.20;;;6.57;;
2728;SDS011;1372;47.956;7.830;2023-10-09T06:18:44;15.47;;;7.67;;
2728;SDS011;1372;47.956;7.830;2023-10-09T06:21:35;10.97;;;7.53;;
2728;SDS011;1372;47.956;7.830;2023-10-09T06:24:09;12.53;;;7.07;;
2728;SDS011;1372;47.956;7.830;2023-10-09T06:26:43;10.50;;;7.10;;
2728;SDS011;1372;47.956;7.830;2023-10-09T06:29:45;10.87;;;7.03;;
2728;SDS011;1372;47.956;7.830;2023-10-09T06:32:41;11.00;;;7.70;;
2728;SDS011;1372;47.956;7.830;2023-10-09T06:35:17;11.93;;;7.00;;
2728;SDS011;1372;47.956;7.830;2023-10-09T06:37:51;13.57;;;8.40;;
2728;SDS011;1372;47.956;7.830;2023-10-09T06:40:50;14.23;;;9.80;;
2728;SDS011;1372;47.956;7.830;2023-10-09T06:43:37;8.43;;;6.70;;
2728;SDS011;1372;47.956;7.830;2023-10-09T06:46:17;11.27;;;6.90;;
2728;SDS011;1372;47.956;7.830;2023-10-09T06:49:11;8.43;;;3.70;;
2728;SDS011;1372;47.956;7.830;2023-10-09T06:52:03;6.47;;;3.10;;
2728;SDS011;1372;47.956;7.830;2023-10-09T06:54:42;12.53;;;3.53;;
2728;SDS011;1372;47.956;7.830;2023-10-09T06:57:17;9.90;;;3.60;;
2728;SDS011;1372;47.956;7.830;2023-10-09T07:00:03;12.83;;;3.60;;
2728;SDS011;1372;47.956;7.830;2023-10-09T07:02:53;7.17;;;3.50;;
2728;SDS011;1372;47.956;7.830;2023-10-09T07:05:28;4.87;;;2.70;;
2728;SDS011;1372;47.956;7.830;2023-10-09T07:08:12;9.07;;;3.50;;
2728;SDS011;1372;47.956;7.830;2023-10-09T07:10:54;5.13;;;2.73;;
2728;SDS011;1372;47.956;7.830;2023-10-09T07:13:44;11.60;;;3.30;;
2728;SDS011;1372;47.956;7.830;2023-10-09T07:16:20;6.63;;;3.40;;
2728;SDS011;1372;47.956;7.830;2023-10-09T07:18:55;6.40;;;2.60;;
2728;SDS011;1372;47.956;7.830;2023-10-09T07:21:39;7.67;;;3.00;;
2728;SDS011;1372;47.956;7.830;2023-10-09T07:24:18;5.97;;;3.10;;
2728;SDS011;1372;47.956;7.830;2023-10-09T07:26:51;10.20;;;3.43;;
2728;SDS011;1372;47.956;7.830;2023-10-09T07:29:22;7.70;;;3.20;;
2728;SDS011;1372;47.956;7.830;2023-10-09T07:31:53;7.77;;;3.20;;
2728;SDS011;1372;47.956;7.830;2023-10-09T07:34:25;4.83;;;2.57;;
2728;SDS011;1372;47.956;7.830;2023-10-09T07:37:22;9.07;;;2.83;;
2728;SDS011;1372;47.956;7.830;2023-10-09T07:39:57;6.63;;;2.67;;
2728;SDS011;1372;47.956;7.830;2023-10-09T07:42:33;6.60;;;3.20;;
2728;SDS011;1372;47.956;7.830;2023-10-09T07:45:10;7.63;;;2.50;;
2728;SDS011;1372;47.956;7.830;2023-10-09T07:48:00;4.10;;;2.70;;
2728;SDS011;1372;47.956;7.830;2023-10-09T07:50:37;5.57;;;2.73;;
2728;SDS011;1372;47.956;7.830;2023-10-09T07:53:18;8.67;;;2.53;;
2728;SDS011;1372;47.956;7.830;2023-10-09T07:55:53;5.23;;;2.90;;
2728;SDS011;1372;47.956;7.830;2023-10-09T07:58:25;8.20;;;3.47;;
2728;SDS011;1372;47.956;7.830;2023-10-09T08:00:54;8.33;;;4.40;;
2728;SDS011;1372;47.956;7.830;2023-10-09T08:03:35;7.50;;;4.60;;
2728;SDS011;1372;47.956;7.830;2023-10-09T08:06:04;7.40;;;3.50;;
2728;SDS011;1372;47.956;7.830;2023-10-09T08:08:59;7.40;;;3.87;;
2728;SDS011;1372;47.956;7.830;2023-10-09T08:12:05;5.10;;;2.93;;
2728;SDS011;1372;47.956;7.830;2023-10-09T08:14:57;5.80;;;2.50;;
2728;SDS011;1372;47.956;7.830;2023-10-09T08:17:48;3.97;;;1.90;;
2728;SDS011;1372;47.956;7.830;2023-10-09T08:20:21;5.10;;;3.70;;
2728;SDS011;1372;47.956;7.830;2023-10-09T08:22:53;7.60;;;2.87;;
2728;SDS011;1372;47.956;7.830;2023-10-09T08:25:24;7.70;;;2.73;;
2728;SDS011;1372;47.956;7.830;2023-10-09T08:27:58;9.23;;;3.40;;
2728;SDS011;1372;47.956;7.830;2023-10-09T08:30:51;7.07;;;2.33;;
2728;SDS011;1372;47.956;7.830;2023-10-09T08:33:30;5.13;;;2.40;;
2728;SDS011;1372;47.956;7.830;2023-10-09T08:36:13;10.13;;;4.37;;
2728;SDS011;1372;47.956;7.830;2023-10-09T08:38:50;6.37;;;3.13;;
2728;SDS011;1372;47.956;7.830;2023-10-09T08:41:26;9.70;;;2.77;;
2728;SDS011;1372;47.956;7.830;2023-10-09T08:43:57;13.20;;;4.07;;
2728;SDS011;1372;47.956;7.830;2023-10-09T08:46:27;5.70;;;2.80;;
2728;SDS011;1372;47.956;7.830;2023-10-09T08:48:56;6.80;;;2.63;;
2728;SDS011;1372;47.956;7.830;2023-10-09T08:51:28;7.43;;;3.33;;
2728;SDS011;1372;47.956;7.830;2023-10-09T08:53:57;7.50;;;3.10;;
2728;SDS011;1372;47.956;7.830;2023-10-09T08:56:28;7.93;;;3.23;;
2728;SDS011;1372;47.956;7.830;2023-10-09T08:58:58;9.73;;;3.07;;
2728;SDS011;1372;47.956;7.830;2023-10-09T09:01:30;7.73;;;2.80;;
2728;SDS011;1372;47.956;7.830;2023-10-09T09:04:01;8.90;;;2.43;;
2728;SDS011;1372;47.956;7.830;2023-10-09T09:06:36;13.10;;;3.47;;
2728;SDS011;1372;47.956;7.830;2023-10-09T09:09:11;7.33;;;2.63;;
2728;SDS011;1372;47.956;7.830;2023-10-09T09:11:44;9.53;;;2.77;;
2728;SDS011;1372;47.956;7.830;2023-10-09T09:14:16;6.57;;;2.50;;
2728;SDS011;1372;47.956;7.830;2023-10-09T09:16:49;6.63;;;2.53;;
2728;SDS011;1372;47.956;7.830;2023-10-09T09:19:19;5.57;;;2.83;;
2728;SDS011;1372;47.956;7.830;2023-10-09T09:22:05;5.80;;;2.20;;
2728;SDS011;1372;47.956;7.830;2023-10-09T09:24:41;8.53;;;2.50;;
2728;SDS011;1372;47.956;7.830;2023-10-09T09:27:46;9.17;;;2.60;;
2728;SDS011;1372;47.956;7.830;2023-10-09T09:30:23;11.37;;;3.13;;
2728;SDS011;1372;47.956;7.830;2023-10-09T09:32:58;8.53;;;3.23;;
2728;SDS011;1372;47.956;7.830;2023-10-09T09:35:57;6.87;;;2.63;;
2728;SDS011;1372;47.956;7.830;2023-10-09T09:38:29;6.43;;;3.77;;
2728;SDS011;1372;47.956;7.830;2023-10-09T09:41:08;8.53;;;3.43;;
2728;SDS011;1372;47.956;7.830;2023-10-09T09:43:40;12.17;;;3.77;;
2728;SDS011;1372;47.956;7.830;2023-10-09T09:46:13;7.27;;;3.00;;
2728;SDS011;1372;47.956;7.830;2023-10-09T09:48:47;13.67;;;4.30;;
2728;SDS011;1372;47.956;7.830;2023-10-09T09:51:20;11.10;;;2.80;;
2728;SDS011;1372;47.956;7.830;2023-10-09T09:53:50;4.90;;;2.17;;
2728;SDS011;1372;47.956;7.830;2023-10-09T09:56:21;4.50;;;2.10;;
2728;SDS011;1372;47.956;7.830;2023-10-09T09:58:54;9.23;;;2.27;;
2728;SDS011;1372;47.956;7.830;2023-10-09T10:01:33;6.67;;;3.00;;
2728;SDS011;1372;47.956;7.830;2023-10-09T10:04:08;10.50;;;2.90;;
2728;SDS011;1372;47.956;7.830;2023-10-09T10:06:41;5.80;;;2.73;;
2728;SDS011;1372;47.956;7.830;2023-10-09T10:12:08;5.03;;;2.60;;
2728;SDS011;1372;47.956;7.830;2023-10-09T10:14:54;6.40;;;2.40;;
2728;SDS011;1372;47.956;7.830;2023-10-09T10:17:26;9.10;;;3.20;;
2728;SDS011;1372;47.956;7.830;2023-10-09T10:20:03;7.60;;;3.47;;
2728;SDS011;1372;47.956;7.830;2023-10-09T10:25:46;11.00;;;4.07;;
2728;SDS011;1372;47.956;7.830;2023-10-09T10:28:18;10.13;;;3.43;;
2728;SDS011;1372;47.956;7.830;2023-10-09T10:31:04;4.67;;;2.90;;
2728;SDS011;1372;47.956;7.830;2023-10-09T10:36:37;11.27;;;3.10;;
2728;SDS011;1372;47.956;7.830;2023-10-09T10:39:10;5.87;;;2.80;;
2728;SDS011;1372;47.956;7.830;2023-10-09T10:41:54;4.63;;;3.03;;
2728;SDS011;1372;47.956;7.830;2023-10-09T10:44:28;9.30;;;4.03;;
2728;SDS011;1372;47.956;7.830;2023-10-09T10:47:06;4.93;;;2.40;;
2728;SDS011;1372;47.956;7.830;2023-10-09T10:49:49;9.60;;;3.00;;
2728;SDS011;1372;47.956;7.830;2023-10-09T10:52:25;7.37;;;2.70;;
2728;SDS011;1372;47.956;7.830;2023-10-09T10:55:09;8.60;;;2.87;;
2728;SDS011;1372;47.956;7.830;2023-10-09T10:57:45;7.10;;;2.70;;
2728;SDS011;1372;47.956;7.830;2023-10-09T11:00:28;6.90;;;3.03;;
2728;SDS011;1372;47.956;7.830;2023-10-09T11:03:20;5.90;;;2.50;;
2728;SDS011;1372;47.956;7.830;2023-10-09T11:05:57;9.30;;;2.60;;
2728;SDS011;1372;47.956;7.830;2023-10-09T11:08:45;7.20;;;2.37;;
2728;SDS011;1372;47.956;7.830;2023-10-09T11:11:21;13.57;;;2.80;;
2728;SDS011;1372;47.956;7.830;2023-10-09T11:14:07;6.57;;;2.63;;
2728;SDS011;1372;47.956;7.830;2023-10-09T11:16:41;9.53;;;3.10;;
2728;SDS011;1372;47.956;7.830;2023-10-09T11:19:12;7.70;;;2.43;;
2728;SDS011;1372;47.956;7.830;2023-10-09T11:21:59;7.97;;;2.77;;
2728;SDS011;1372;47.956;7.830;2023-10-09T11:24:48;8.90;;;3.03;;
2728;SDS011;1372;47.956;7.830;2023-10-09T11:27:35;6.97;;;2.57;;
2728;SDS011;1372;47.956;7.830;2023-10-09T11:30:07;9.00;;;3.00;;
2728;SDS011;1372;47.956;7.830;2023-10-09T11:32:38;8.87;;;2.90;;
2728;SDS011;1372;47.956;7.830;2023-10-09T11:35:13;7.57;;;3.53;;
2728;SDS011;1372;47.956;7.830;2023-10-09T11:37:54;6.30;;;3.00;;
2728;SDS011;1372;47.956;7.830;2023-10-09T11:40:27;10.93;;;2.90;;
2728;SDS011;1372;47.956;7.830;2023-10-09T11:43:00;10.63;;;3.43;;
2728;SDS011;1372;47.956;7.830;2023-10-09T11:45:42;5.20;;;2.30;;
2728;SDS011;1372;47.956;7.830;2023-10-09T11:48:21;8.10;;;3.03;;
2728;SDS011;1372;47.956;7.830;2023-10-09T11:50:52;8.20;;;2.27;;
2728;SDS011;1372;47.956;7.830;2023-10-09T11:53:23;9.77;;;3.20;;
2728;SDS011;1372;47.956;7.830;2023-10-09T11:56:00;6.73;;;3.10;;
2728;SDS011;1372;47.956;7.830;2023-10-09T11:58:31;5.97;;;2.37;;
2728;SDS011;1372;47.956;7.830;2023-10-09T12:01:09;13.30;;;3.57;;
2728;SDS011;1372;47.956;7.830;2023-10-09T12:03:49;7.23;;;3.70;;
2728;SDS011;1372;47.956;7.830;2023-10-09T12:06:22;8.00;;;3.10;;
2728;SDS011;1372;47.956;7.830;2023-10-09T12:29:09;5.23;;;3.03;;
2728;SDS011;1372;47.956;7.830;2023-10-09T12:31:38;7.67;;;3.10;;
2728;SDS011;1372;47.956;7.830;2023-10-09T12:34:12;6.27;;;2.70;;
2728;SDS011;1372;47.956;7.830;2023-10-09T12:36:44;5.63;;;3.43;;
2728;SDS011;1372;47.956;7.830;2023-10-09T12:39:14;8.00;;;3.37;;
2728;SDS011;1372;47.956;7.830;2023-10-09T12:41:45;13.00;;;3.50;;
2728;SDS011;1372;47.956;7.830;2023-10-09T12:44:16;6.20;;;3.30;;
2728;SDS011;1372;47.956;7.830;2023-10-09T12:46:46;6.80;;;3.10;;
2728;SDS011;1372;47.956;7.830;2023-10-09T12:49:22;9.43;;;4.23;;
2728;SDS011;1372;47.956;7.830;2023-10-09T12:51:53;6.50;;;4.27;;
2728;SDS011;1372;47.956;7.830;2023-10-09T12:54:24;8.43;;;3.97;;
2728;SDS011;1372;47.956;7.830;2023-10-09T12:56:54;5.00;;;2.70;;
2728;SDS011;1372;47.956;7.830;2023-10-09T12:59:27;7.73;;;3.03;;
2728;SDS011;1372;47.956;7.830;2023-10-09T13:01:56;5.23;;;3.37;;
2728;SDS011;1372;47.956;7.830;2023-10-09T13:04:25;6.60;;;2.70;;
2728;SDS011;1372;47.956;7.830;2023-10-09T13:06:59;9.07;;;3.37;;
2728;SDS011;1372;47.956;7.830;2023-10-09T13:09:31;7.70;;;3.33;;
2728;SDS011;1372;47.956;7.830;2023-10-09T13:12:09;6.80;;;2.87;;
2728;SDS011;1372;47.956;7.830;2023-10-09T13:14:46;9.87;;;3.47;;
2728;SDS011;1372;47.956;7.830;2023-10-09T13:17:19;5.80;;;2.70;;
2728;SDS011;1372;47.956;7.830;2023-10-09T13:19:49;9.97;;;3.47;;
2728;SDS011;1372;47.956;7.830;2023-10-09T13:22:17;11.90;;;3.10;;
2728;SDS011;1372;47.956;7.830;2023-10-09T13:24:47;8.07;;;3.07;;
2728;SDS011;1372;47.956;7.830;2023-10-09T13:27:22;5.33;;;3.20;;
2728;SDS011;1372;47.956;7.830;2023-10-09T13:29:53;8.43;;;3.30;;
2728;SDS011;1372;47.956;7.830;2023-10-09T13:32:34;7.63;;;4.17;;
2728;SDS011;1372;47.956;7.830;2023-10-09T13:35:05;12.80;;;3.50;;
2728;SDS011;1372;47.956;7.830;2023-10-09T13:37:35;5.53;;;2.90;;
2728;SDS011;1372;47.956;7.830;2023-10-09T13:40:04;10.33;;;3.43;;
2728;SDS011;1372;47.956;7.830;2023-10-09T13:42:38;8.70;;;3.10;;
2728;SDS011;1372;47.956;7.830;2023-10-09T13:45:11;10.93;;;4.03;;
2728;SDS011;1372;47.956;7.830;2023-10-09T13:47:43;7.97;;;3.57;;
2728;SDS011;1372;47.956;7.830;2023-10-09T13:50:13;8.00;;;2.90;;
2728;SDS011;1372;47.956;7.830;2023-10-09T13:52:41;5.43;;;2.73;;
2728;SDS011;1372;47.956;7.830;2023-10-09T13:55:10;5.63;;;2.77;;
2728;SDS011;1372;47.956;7.830;2023-10-09T13:57:43;9.90;;;4.50;;
2728;SDS011;1372;47.956;7.830;2023-10-09T14:00:14;8.20;;;3.40;;
2728;SDS011;1372;47.956;7.830;2023-10-09T14:02:59;8.80;;;3.63;;
2728;SDS011;1372;47.956;7.830;2023-10-09T14:05:39;8.17;;;4.37;;
2728;SDS011;1372;47.956;7.830;2023-10-09T14:08:19;9.87;;;3.00;;
2728;SDS011;1372;47.956;7.830;2023-10-09T14:10:55;7.00;;;3.27;;
2728;SDS011;1372;47.956;7.830;2023-10-09T14:13:29;8.43;;;2.97;;
2728;SDS011;1372;47.956;7.830;2023-10-09T14:15:59;6.30;;;2.80;;
2728;SDS011;1372;47.956;7.830;2023-10-09T14:18:29;8.90;;;3.03;;
2728;SDS011;1372;47.956;7.830;2023-10-09T14:21:00;7.77;;;2.90;;
2728;SDS011;1372;47.956;7.830;2023-10-09T14:23:32;9.90;;;2.93;;
2728;SDS011;1372;47.956;7.830;2023-10-09T14:26:01;8.27;;;2.97;;
2728;SDS011;1372;47.956;7.830;2023-10-09T14:28:33;6.43;;;2.70;;
2728;SDS011;1372;47.956;7.830;2023-10-09T14:31:03;10.77;;;2.37;;
2728;SDS011;1372;47.956;7.830;2023-10-09T14:33:38;6.40;;;2.67;;
2728;SDS011;1372;47.956;7.830;2023-10-09T14:36:07;15.60;;;3.30;;
2728;SDS011;1372;47.956;7.830;2023-10-09T14:38:41;5.40;;;3.40;;
2728;SDS011;1372;47.956;7.830;2023-10-09T14:41:10;5.50;;;2.50;;
2728;SDS011;1372;47.956;7.830;2023-10-09T14:43:39;12.30;;;3.10;;
2728;SDS011;1372;47.956;7.830;2023-10-09T14:46:14;6.27;;;2.67;;
2728;SDS011;1372;47.956;7.830;2023-10-09T14:48:46;4.47;;;2.70;;
2728;SDS011;1372;47.956;7.830;2023-10-09T14:51:15;6.83;;;3.30;;
2728;SDS011;1372;47.956;7.830;2023-10-09T14:53:44;11.37;;;2.67;;
2728;SDS011;1372;47.956;7.830;2023-10-09T14:56:13;9.03;;;2.70;;
2728;SDS011;1372;47.956;7.830;2023-10-09T14:58:47;7.10;;;3.67;;
2728;SDS011;1372;47.956;7.830;2023-10-09T15:01:18;7.73;;;2.97;;
2728;SDS011;1372;47.956;7.830;2023-10-09T15:03:47;11.10;;;3.03;;
2728;SDS011;1372;47.956;7.830;2023-10-09T15:06:22;8.40;;;3.13;;
2728;SDS011;1372;47.956;7.830;2023-10-09T15:08:54;13.20;;;3.30;;
2728;SDS011;1372;47.956;7.830;2023-10-09T15:11:26;6.10;;;3.17;;
2728;SDS011;1372;47.956;7.830;2023-10-09T15:13:56;7.40;;;2.87;;
2728;SDS011;1372;47.956;7.830;2023-10-09T15:16:27;9.87;;;2.77;;
2728;SDS011;1372;47.956;7.830;2023-10-09T15:18:57;7.80;;;3.13;;
2728;SDS011;1372;47.956;7.830;2023-10-09T15:21:29;9.63;;;4.40;;
2728;SDS011;1372;47.956;7.830;2023-10-09T15:24:00;14.73;;;4.07;;
2728;SDS011;1372;47.956;7.830;2023-10-09T15:26:28;8.47;;;2.90;;
2728;SDS011;1372;47.956;7.830;2023-10-09T15:29:00;9.33;;;4.60;;
2728;SDS011;1372;47.956;7.830;2023-10-09T15:31:35;12.53;;;3.50;;
2728;SDS011;1372;47.956;7.830;2023-10-09T15:34:07;10.53;;;3.33;;
2728;SDS011;1372;47.956;7.830;2023-10-09T15:36:37;5.97;;;2.80;;
2728;SDS011;1372;47.956;7.830;2023-10-09T15:39:09;10.20;;;3.90;;
2728;SDS011;1372;47.956;7.830;2023-10-09T15:41:38;8.27;;;3.40;;
2728;SDS011;1372;47.956;7.830;2023-10-09T15:44:07;12.30;;;4.37;;
2728;SDS011;1372;47.956;7.830;2023-10-09T15:46:38;8.10;;;4.20;;
2728;SDS011;1372;47.956;7.830;2023-10-09T15:49:07;6.43;;;3.30;;
2728;SDS011;1372;47.956;7.830;2023-10-09T15:51:38;5.20;;;3.17;;
2728;SDS011;1372;47.956;7.830;2023-10-09T15:54:07;6.67;;;3.27;;
2728;SDS011;1372;47.956;7.830;2023-10-09T15:56:38;7.70;;;3.87;;
2728;SDS011;1372;47.956;7.830;2023-10-09T15:59:13;8.80;;;4.00;;
2728;SDS011;1372;47.956;7.830;2023-10-09T16:01:45;9.40;;;3.03;;
2728;SDS011;1372;47.956;7.830;2023-10-09T16:04:16;5.77;;;3.33;;
2728;SDS011;1372;47.956;7.830;2023-10-09T16:06:45;7.67;;;3.23;;
2728;SDS011;1372;47.956;7.830;2023-10-09T16:09:14;8.47;;;3.77;;
2728;SDS011;1372;47.956;7.830;2023-10-09T16:11:48;8.67;;;3.80;;
2728;SDS011;1372;47.956;7.830;2023-10-09T16:14:17;6.93;;;3.60;;
2728;SDS011;1372;47.956;7.830;2023-10-09T16:16:49;5.93;;;3.30;;
2728;SDS011;1372;47.956;7.830;2023-10-09T16:19:22;9.40;;;3.20;;
2728;SDS011;1372;47.956;7.830;2023-10-09T16:21:51;7.03;;;3.50;;
2728;SDS011;1372;47.956;7.830;2023-10-09T16:24:22;7.07;;;3.83;;
2728;SDS011;1372;47.956;7.830;2023-10-09T16:26:51;10.93;;;3.20;;
2728;SDS011;1372;47.956;7.830;2023-10-09T16:29:22;10.63;;;4.20;;
2728;SDS011;1372;47.956;7.830;2023-10-09T16:31:52;9.93;;;4.43;;
2728;SDS011;1372;47.956;7.830;2023-10-09T16:34:24;4.20;;;2.70;;
2728;SDS011;1372;47.956;7.830;2023-10-09T16:36:53;5.90;;;3.70;;